createdAt,value
2022-10-22T03:57:28.492Z,11.42
2022-10-22T04:00:52.115Z,11.43
2022-10-22T04:04:15.510Z,11.42
2022-10-22T04:07:39.336Z,11.40
2022-10-22T04:11:03.101Z,11.37
2022-10-22T04:14:26.424Z,11.35
2022-10-22T04:17:49.692Z,11.32
2022-10-22T04:21:14.539Z,11.31
2022-10-22T04:24:38.409Z,11.29
2022-10-22T04:28:01.805Z,11.30
2022-10-22T04:31:26.419Z,11.30
2022-10-22T04:34:49.599Z,11.31
2022-10-22T04:38:13.951Z,11.30
2022-10-22T04:41:39.268Z,11.30
2022-10-22T04:45:02.504Z,11.30
2022-10-22T04:48:25.953Z,11.31
2022-10-22T04:51:49.078Z,11.30
2022-10-22T04:55:12.640Z,11.29
2022-10-22T04:58:35.889Z,11.28
2022-10-22T05:01:59.885Z,11.29
2022-10-22T05:05:23.877Z,11.29
2022-10-22T05:08:48.132Z,11.29
2022-10-22T05:12:12.212Z,11.30
2022-10-22T05:15:36.046Z,11.32
2022-10-22T05:19:00.789Z,11.32
2022-10-22T05:22:24.330Z,11.32
2022-10-22T05:25:47.690Z,11.32
2022-10-22T05:29:11.569Z,11.33
2022-10-22T05:32:36.080Z,11.34
2022-10-22T05:35:59.829Z,11.34
2022-10-22T05:39:23.412Z,11.36
2022-10-22T05:42:46.976Z,11.38
2022-10-22T05:46:12.913Z,11.40
2022-10-22T05:49:36.328Z,11.42
2022-10-22T05:52:59.759Z,11.43
2022-10-22T05:56:24.087Z,11.46
2022-10-22T05:59:48.096Z,11.48
2022-10-22T06:03:11.301Z,11.52
2022-10-22T06:06:37.222Z,11.54
2022-10-22T06:10:01.721Z,11.57
2022-10-22T06:13:25.814Z,11.59
2022-10-22T06:16:49.750Z,11.63
2022-10-22T06:20:14.653Z,11.66
2022-10-22T06:23:39.048Z,11.70
2022-10-22T06:27:02.369Z,11.75
2022-10-22T06:30:25.880Z,11.79
2022-10-22T06:33:49.092Z,11.84
2022-10-22T06:37:13.334Z,11.90
2022-10-22T06:40:36.483Z,11.95
2022-10-22T06:50:00.328Z,12.11
2022-10-22T06:53:27.310Z,12.15
2022-10-22T06:56:54.138Z,12.20
2022-10-22T07:00:22.381Z,12.25
2022-10-22T07:03:51.242Z,12.29
2022-10-22T07:07:17.846Z,12.34
2022-10-22T07:10:44.454Z,12.38
2022-10-22T07:14:11.437Z,12.43
2022-10-22T07:21:08.952Z,12.49
2022-10-22T07:24:35.821Z,12.50
2022-10-22T07:28:02.570Z,12.51
2022-10-22T07:31:30.354Z,12.52
2022-10-22T07:34:57.191Z,12.52
2022-10-22T07:38:24.091Z,12.53
2022-10-22T07:41:50.840Z,12.55
2022-10-22T07:45:17.788Z,12.58
2022-10-22T07:48:44.453Z,12.62
2022-10-22T07:52:11.589Z,12.64
2022-10-22T07:55:39.146Z,12.68
2022-10-22T07:59:06.043Z,12.71
2022-10-22T08:02:32.794Z,12.74
2022-10-22T08:06:00.147Z,12.77
2022-10-22T08:09:26.965Z,12.80
2022-10-22T08:12:53.710Z,12.84
2022-10-22T08:16:20.619Z,12.86
2022-10-22T08:19:47.431Z,12.88
2022-10-22T08:23:14.524Z,12.90
2022-10-22T08:26:42.063Z,12.96
2022-10-22T08:30:10.946Z,13.05
2022-10-22T08:33:39.084Z,13.14
2022-10-22T08:37:08.547Z,13.25
2022-10-22T08:40:39.408Z,13.41
2022-10-22T08:44:17.857Z,13.51
2022-10-22T08:47:59.018Z,13.59
2022-10-22T08:51:28.333Z,13.71
2022-10-22T08:54:58.238Z,13.86
2022-10-22T08:58:26.381Z,14.03
2022-10-22T09:01:55.540Z,14.19
2022-10-22T09:05:34.960Z,14.31
2022-10-22T09:09:03.751Z,14.42
2022-10-22T09:12:30.901Z,14.52
2022-10-22T09:16:01.591Z,14.55
2022-10-22T09:19:36.090Z,14.56
2022-10-22T09:23:27.387Z,14.54
2022-10-22T09:26:54.263Z,14.55
2022-10-22T09:30:22.979Z,14.56
2022-10-22T09:33:51.934Z,14.57
2022-10-22T09:37:20.396Z,14.58
2022-10-22T09:40:49.885Z,14.57
2022-10-22T09:44:16.698Z,14.54
2022-10-22T09:48:01.081Z,14.47
2022-10-22T09:51:42.373Z,14.38
2022-10-22T09:55:17.909Z,14.36
2022-10-22T09:58:51.356Z,14.34
2022-10-22T10:02:37.408Z,14.31
2022-10-22T10:06:07.416Z,14.22
2022-10-22T10:09:36.424Z,14.13
2022-10-22T10:13:11.647Z,14.06
2022-10-22T10:16:49.284Z,14.02
2022-10-22T10:20:34.676Z,13.99
2022-10-22T10:24:11.943Z,13.95
2022-10-22T10:27:42.320Z,13.92
2022-10-22T10:31:18.709Z,13.89
2022-10-22T10:34:53.037Z,13.87
2022-10-22T10:38:34.158Z,13.86
2022-10-22T10:42:07.988Z,13.84
2022-10-22T10:45:44.748Z,13.85
2022-10-22T10:49:18.236Z,13.87
2022-10-22T10:52:56.442Z,13.91
2022-10-22T10:56:39.091Z,13.96
2022-10-22T11:00:11.044Z,14.03
2022-10-22T11:04:07.520Z,14.08
2022-10-22T11:07:40.628Z,14.15
2022-10-22T11:11:13.936Z,14.20
2022-10-22T11:14:51.983Z,14.25
2022-10-22T11:18:23.680Z,14.35
2022-10-22T11:21:57.578Z,14.49
2022-10-22T11:25:30.199Z,14.65
2022-10-22T11:29:00.225Z,14.78
2022-10-22T11:32:29.347Z,14.87
2022-10-22T11:35:58.616Z,14.96
2022-10-22T11:39:36.592Z,14.96
2022-10-22T11:43:08.644Z,14.94
2022-10-22T11:46:44.834Z,14.89
2022-10-22T11:50:25.367Z,14.87
2022-10-22T11:53:58.667Z,14.85
2022-10-22T11:57:29.854Z,14.85
2022-10-22T12:00:58.055Z,14.86
2022-10-22T12:04:40.806Z,14.86
2022-10-22T12:08:24.306Z,14.86
2022-10-22T12:11:53.449Z,14.84
2022-10-22T12:15:28.138Z,14.80
2022-10-22T12:19:03.072Z,14.77
2022-10-22T12:22:31.933Z,14.76
2022-10-22T12:25:59.467Z,14.69
2022-10-22T12:29:28.562Z,14.62
2022-10-22T12:32:57.091Z,14.58
2022-10-22T12:36:23.924Z,14.57
2022-10-22T12:39:50.668Z,14.55
2022-10-22T12:43:19.941Z,14.54
2022-10-22T12:46:51.758Z,14.52
2022-10-22T12:50:26.717Z,14.51
2022-10-22T12:53:55.441Z,14.51
2022-10-22T12:57:24.297Z,14.48
2022-10-22T13:00:57.323Z,14.45
2022-10-22T13:04:35.061Z,14.43
2022-10-22T13:08:09.984Z,14.37
2022-10-22T13:11:41.849Z,14.32
2022-10-22T13:15:24.436Z,14.28
2022-10-22T13:18:52.261Z,14.26
2022-10-22T13:22:36.334Z,14.20
2022-10-22T13:26:05.965Z,14.14
2022-10-22T13:29:32.526Z,14.09
2022-10-22T13:33:02.070Z,14.05
2022-10-22T13:36:29.150Z,14.02
2022-10-22T13:39:55.780Z,13.99
2022-10-22T13:43:22.830Z,13.95
2022-10-22T13:46:50.036Z,13.94
2022-10-22T13:50:19.744Z,13.95
2022-10-22T13:53:46.575Z,13.95
2022-10-22T13:57:13.392Z,13.94
2022-10-22T14:00:42.101Z,13.96
2022-10-22T14:04:14.637Z,14.00
2022-10-22T14:07:42.224Z,14.04
2022-10-22T14:11:10.879Z,14.05
2022-10-22T14:14:38.476Z,14.04
2022-10-22T14:18:07.257Z,14.03
2022-10-22T14:21:39.568Z,14.02
2022-10-22T14:25:07.133Z,14.01
2022-10-22T14:28:41.053Z,14.00
2022-10-22T14:32:20.192Z,14.02
2022-10-22T14:35:49.201Z,14.03
2022-10-22T14:39:17.799Z,14.04
2022-10-22T14:42:48.866Z,14.04
2022-10-22T14:46:17.963Z,14.05
2022-10-22T14:49:45.624Z,14.07
2022-10-22T14:53:13.752Z,14.09
2022-10-22T14:56:40.542Z,14.10
2022-10-22T15:00:09.912Z,14.14
2022-10-22T15:03:37.133Z,14.15
2022-10-22T15:07:03.908Z,14.17
2022-10-22T15:10:30.658Z,14.17
2022-10-22T15:13:57.259Z,14.16
2022-10-22T15:17:24.127Z,14.14
2022-10-22T15:20:57.740Z,14.12
2022-10-22T15:24:24.592Z,14.11
2022-10-22T15:27:52.571Z,14.08
2022-10-22T15:31:47.541Z,14.06
2022-10-22T15:35:14.509Z,14.04
2022-10-22T15:38:41.431Z,14.02
2022-10-22T15:42:08.449Z,14.00
2022-10-22T15:45:35.158Z,13.98
2022-10-22T15:49:01.739Z,13.95
2022-10-22T15:52:28.508Z,13.93
2022-10-22T15:55:55.309Z,13.90
2022-10-22T15:59:22.243Z,13.87
2022-10-22T16:02:48.889Z,13.85
2022-10-22T16:06:15.408Z,13.83
2022-10-22T16:09:42.122Z,13.81
2022-10-22T16:13:08.667Z,13.80
2022-10-22T16:16:39.611Z,13.80
2022-10-22T16:20:07.370Z,13.80
2022-10-22T16:23:34.571Z,13.80
2022-10-22T16:27:01.189Z,13.80
2022-10-22T16:30:27.871Z,13.81
2022-10-22T16:33:54.732Z,13.82
2022-10-22T16:37:21.933Z,13.82
2022-10-22T16:40:49.456Z,13.83
2022-10-22T16:44:16.322Z,13.84
2022-10-22T16:47:45.789Z,13.84
2022-10-22T16:51:16.029Z,13.84
2022-10-22T16:54:42.701Z,13.85
2022-10-22T16:58:09.582Z,13.84
2022-10-22T17:01:40.699Z,13.84
2022-10-22T17:05:09.558Z,13.83
2022-10-22T17:08:36.881Z,13.83
2022-10-22T17:12:03.751Z,13.83
2022-10-22T17:15:30.570Z,13.83
2022-10-22T17:18:58.189Z,13.83
2022-10-22T17:22:25.261Z,13.83
2022-10-22T17:25:58.567Z,13.83
2022-10-22T17:29:27.043Z,13.82
2022-10-22T17:32:54.564Z,13.79
2022-10-22T17:36:22.745Z,13.77
2022-10-22T17:39:50.125Z,13.75
2022-10-22T17:43:16.690Z,13.72
2022-10-22T17:46:45.309Z,13.70
2022-10-22T17:50:13.378Z,13.69
2022-10-22T17:53:45.656Z,13.68
2022-10-22T17:57:13.833Z,13.66
2022-10-22T18:00:40.759Z,13.62
2022-10-22T18:04:09.361Z,13.60
2022-10-22T18:07:36.006Z,13.57
2022-10-22T18:11:06.094Z,13.55
2022-10-22T18:14:32.721Z,13.53
2022-10-22T18:17:59.306Z,13.53
2022-10-22T18:21:28.174Z,13.54
2022-10-22T18:24:54.800Z,13.54
2022-10-22T18:28:21.796Z,13.55
2022-10-22T18:31:49.213Z,13.57
2022-10-22T18:35:16.019Z,13.59
2022-10-22T18:38:43.287Z,13.60
2022-10-22T18:42:10.378Z,13.62
2022-10-22T18:45:37.082Z,13.65
2022-10-22T18:49:04.472Z,13.66
2022-10-22T18:52:31.326Z,13.68
2022-10-22T18:55:57.961Z,13.70
2022-10-22T18:59:26.077Z,13.71
2022-10-22T19:02:52.794Z,13.73
2022-10-22T19:06:26.312Z,13.73
2022-10-22T19:09:53.012Z,13.72
2022-10-22T19:13:23.226Z,13.74
2022-10-22T19:16:50.312Z,13.74
2022-10-22T19:20:17.412Z,13.73
2022-10-22T19:27:16.909Z,13.72
2022-10-22T19:30:44.723Z,13.70
2022-10-22T19:34:12.331Z,13.68
2022-10-22T19:37:39.179Z,13.64
2022-10-22T19:41:06.544Z,13.60
2022-10-22T19:44:33.174Z,13.56
2022-10-22T19:47:59.938Z,13.52
2022-10-22T19:51:29.739Z,13.46
2022-10-22T19:54:56.609Z,13.38
2022-10-22T19:58:23.215Z,13.29
2022-10-22T20:01:49.955Z,13.20
2022-10-22T20:05:16.677Z,13.11
2022-10-22T20:08:43.825Z,13.03
2022-10-22T20:12:10.696Z,12.93
2022-10-22T20:15:37.691Z,12.83
2022-10-22T20:19:06.252Z,12.71
2022-10-22T20:22:32.927Z,12.60
2022-10-22T20:25:59.556Z,12.50
2022-10-22T20:29:26.234Z,12.40
2022-10-22T20:32:53.250Z,12.31
2022-10-22T20:36:22.132Z,12.22
2022-10-22T20:39:49.752Z,12.13
2022-10-22T20:43:16.406Z,12.05
2022-10-22T20:46:43.916Z,11.97
2022-10-22T20:50:13.485Z,11.90
2022-10-22T20:53:40.443Z,11.81
2022-10-22T20:57:07.369Z,11.75
2022-10-22T21:00:36.082Z,11.70
2022-10-22T21:04:03.039Z,11.65
2022-10-22T21:07:29.701Z,11.61
2022-10-22T21:10:56.430Z,11.56
2022-10-22T21:14:24.241Z,11.53
2022-10-22T21:17:51.869Z,11.49
2022-10-22T21:21:20.001Z,11.46
2022-10-22T21:24:46.920Z,11.44
2022-10-22T21:28:13.738Z,11.43
2022-10-22T21:31:41.030Z,11.39
2022-10-22T21:35:08.617Z,11.37
2022-10-22T21:38:35.670Z,11.36
2022-10-22T21:42:02.394Z,11.35
2022-10-22T21:45:29.163Z,11.34
2022-10-22T21:49:01.489Z,11.34
2022-10-22T21:52:28.694Z,11.34
2022-10-22T21:55:55.480Z,11.36
2022-10-22T21:59:22.056Z,11.40
2022-10-22T22:02:48.983Z,11.43
2022-10-22T22:06:21.129Z,11.47
2022-10-22T22:09:49.578Z,11.53
2022-10-22T22:13:17.351Z,11.58
2022-10-22T22:16:44.009Z,11.63
2022-10-22T22:20:12.153Z,11.68
2022-10-22T22:23:42.062Z,11.75
2022-10-22T22:27:09.348Z,11.86
2022-10-22T22:30:36.476Z,11.96
2022-10-22T22:34:04.578Z,12.06
2022-10-22T22:37:31.297Z,12.16
2022-10-22T22:40:59.452Z,12.24
2022-10-22T22:44:26.601Z,12.32
2022-10-22T22:47:53.473Z,12.40
